sensor_id;sensor_type;location;lat;lon;timestamp;P1;durP1;ratioP1;P2;durP2;ratioP2
3845;SDS011;1938;50.812;7.738;2023-04-25T00:00:59;14.13;;;3.30;;
3845;SDS011;1938;50.812;7.738;2023-04-25T00:03:24;8.53;;;3.33;;
3845;SDS011;1938;50.812;7.738;2023-04-25T00:05:50;5.57;;;2.80;;
3845;SDS011;1938;50.812;7.738;2023-04-25T00:08:17;8.70;;;4.37;;
3845;SDS011;1938;50.812;7.738;2023-04-25T00:10:43;10.90;;;3.10;;
3845;SDS011;1938;50.812;7.738;2023-04-25T00:13:08;7.93;;;3.73;;
3845;SDS011;1938;50.812;7.738;2023-04-25T00:15:36;9.90;;;4.20;;
3845;SDS011;1938;50.812;7.738;2023-04-25T00:18:02;7.37;;;3.10;;
3845;SDS011;1938;50.812;7.738;2023-04-25T00:20:28;7.60;;;4.10;;
3845;SDS011;1938;50.812;7.738;2023-04-25T00:22:54;11.00;;;4.07;;
3845;SDS011;1938;50.812;7.738;2023-04-25T00:25:20;8.13;;;4.40;;
3845;SDS011;1938;50.812;7.738;2023-04-25T00:27:46;8.40;;;4.03;;
3845;SDS011;1938;50.812;7.738;2023-04-25T00:30:12;14.23;;;5.57;;
3845;SDS011;1938;50.812;7.738;2023-04-25T00:32:38;14.90;;;5.97;;
3845;SDS011;1938;50.812;7.738;2023-04-25T00:35:03;11.37;;;4.90;;
3845;SDS011;1938;50.812;7.738;2023-04-25T00:37:29;9.37;;;3.20;;
3845;SDS011;1938;50.812;7.738;2023-04-25T00:39:55;21.43;;;3.73;;
3845;SDS011;1938;50.812;7.738;2023-04-25T00:42:22;12.50;;;4.47;;
3845;SDS011;1938;50.812;7.738;2023-04-25T00:44:51;18.17;;;4.73;;
3845;SDS011;1938;50.812;7.738;2023-04-25T00:47:17;12.50;;;4.00;;
3845;SDS011;1938;50.812;7.738;2023-04-25T00:49:43;13.33;;;5.40;;
3845;SDS011;1938;50.812;7.738;2023-04-25T00:52:09;10.47;;;4.47;;
3845;SDS011;1938;50.812;7.738;2023-04-25T00:54:35;17.20;;;4.93;;
3845;SDS011;1938;50.812;7.738;2023-04-25T00:57:01;24.60;;;5.00;;
3845;SDS011;1938;50.812;7.738;2023-04-25T00:59:28;13.80;;;3.57;;
3845;SDS011;1938;50.812;7.738;2023-04-25T01:01:54;10.40;;;5.43;;
3845;SDS011;1938;50.812;7.738;2023-04-25T01:04:20;9.30;;;3.10;;
3845;SDS011;1938;50.812;7.738;2023-04-25T01:06:46;5.87;;;2.13;;
3845;SDS011;1938;50.812;7.738;2023-04-25T01:09:13;9.57;;;4.77;;
3845;SDS011;1938;50.812;7.738;2023-04-25T01:11:39;12.70;;;5.63;;
3845;SDS011;1938;50.812;7.738;2023-04-25T01:14:05;9.63;;;3.17;;
3845;SDS011;1938;50.812;7.738;2023-04-25T01:16:31;12.60;;;5.53;;
3845;SDS011;1938;50.812;7.738;2023-04-25T01:18:58;10.50;;;4.00;;
3845;SDS011;1938;50.812;7.738;2023-04-25T01:21:24;7.03;;;2.60;;
3845;SDS011;1938;50.812;7.738;2023-04-25T01:23:52;19.40;;;4.90;;
3845;SDS011;1938;50.812;7.738;2023-04-25T01:26:19;14.23;;;4.63;;
3845;SDS011;1938;50.812;7.738;2023-04-25T01:28:46;12.77;;;3.90;;
3845;SDS011;1938;50.812;7.738;2023-04-25T01:31:13;24.63;;;5.53;;
3845;SDS011;1938;50.812;7.738;2023-04-25T01:33:40;27.13;;;5.07;;
3845;SDS011;1938;50.812;7.738;2023-04-25T01:36:06;17.30;;;5.37;;
3845;SDS011;1938;50.812;7.738;2023-04-25T01:38:31;21.80;;;5.60;;
3845;SDS011;1938;50.812;7.738;2023-04-25T01:40:57;15.77;;;6.03;;
3845;SDS011;1938;50.812;7.738;2023-04-25T01:43:23;9.63;;;5.10;;
3845;SDS011;1938;50.812;7.738;2023-04-25T01:45:49;10.63;;;4.70;;
3845;SDS011;1938;50.812;7.738;2023-04-25T01:48:16;18.00;;;6.13;;
3845;SDS011;1938;50.812;7.738;2023-04-25T01:50:42;17.43;;;4.20;;
3845;SDS011;1938;50.812;7.738;2023-04-25T01:53:08;14.60;;;4.47;;
3845;SDS011;1938;50.812;7.738;2023-04-25T01:55:35;14.03;;;5.07;;
3845;SDS011;1938;50.812;7.738;2023-04-25T01:58:02;19.47;;;5.60;;
3845;SDS011;1938;50.812;7.738;2023-04-25T02:00:28;12.90;;;4.07;;
3845;SDS011;1938;50.812;7.738;2023-04-25T02:02:57;30.43;;;7.03;;
3845;SDS011;1938;50.812;7.738;2023-04-25T02:05:23;14.50;;;5.43;;
3845;SDS011;1938;50.812;7.738;2023-04-25T02:07:49;25.77;;;7.17;;
3845;SDS011;1938;50.812;7.738;2023-04-25T02:10:15;26.23;;;7.10;;
3845;SDS011;1938;50.812;7.738;2023-04-25T02:12:40;15.53;;;5.90;;
3845;SDS011;1938;50.812;7.738;2023-04-25T02:15:06;15.70;;;5.80;;
3845;SDS011;1938;50.812;7.738;2023-04-25T02:17:32;19.53;;;6.07;;
3845;SDS011;1938;50.812;7.738;2023-04-25T02:19:58;22.53;;;6.70;;
3845;SDS011;1938;50.812;7.738;2023-04-25T02:22:23;15.87;;;6.33;;
3845;SDS011;1938;50.812;7.738;2023-04-25T02:24:49;16.07;;;6.10;;
3845;SDS011;1938;50.812;7.738;2023-04-25T02:27:15;11.10;;;5.67;;
3845;SDS011;1938;50.812;7.738;2023-04-25T02:29:40;19.00;;;6.10;;
3845;SDS011;1938;50.812;7.738;2023-04-25T02:32:06;15.30;;;6.17;;
3845;SDS011;1938;50.812;7.738;2023-04-25T02:34:31;25.67;;;6.93;;
3845;SDS011;1938;50.812;7.738;2023-04-25T02:36:57;13.10;;;5.00;;
3845;SDS011;1938;50.812;7.738;2023-04-25T02:39:22;11.03;;;5.60;;
3845;SDS011;1938;50.812;7.738;2023-04-25T02:41:50;16.07;;;6.60;;
3845;SDS011;1938;50.812;7.738;2023-04-25T02:44:15;18.20;;;4.77;;
3845;SDS011;1938;50.812;7.738;2023-04-25T02:46:41;20.63;;;7.97;;
3845;SDS011;1938;50.812;7.738;2023-04-25T02:49:07;23.60;;;6.90;;
3845;SDS011;1938;50.812;7.738;2023-04-25T02:51:33;15.00;;;5.90;;
3845;SDS011;1938;50.812;7.738;2023-04-25T02:53:59;7.97;;;4.07;;
3845;SDS011;1938;50.812;7.738;2023-04-25T02:56:24;7.67;;;3.10;;
3845;SDS011;1938;50.812;7.738;2023-04-25T02:58:51;15.90;;;5.43;;
3845;SDS011;1938;50.812;7.738;2023-04-25T03:01:16;9.70;;;4.60;;
3845;SDS011;1938;50.812;7.738;2023-04-25T03:03:42;16.53;;;6.70;;
3845;SDS011;1938;50.812;7.738;2023-04-25T03:06:08;14.30;;;4.80;;
3845;SDS011;1938;50.812;7.738;2023-04-25T03:08:33;12.20;;;5.87;;
3845;SDS011;1938;50.812;7.738;2023-04-25T03:10:59;20.70;;;8.83;;
3845;SDS011;1938;50.812;7.738;2023-04-25T03:13:25;18.70;;;6.53;;
3845;SDS011;1938;50.812;7.738;2023-04-25T03:15:52;20.70;;;7.33;;
3845;SDS011;1938;50.812;7.738;2023-04-25T03:18:17;26.17;;;7.83;;
3845;SDS011;1938;50.812;7.738;2023-04-25T03:20:43;17.30;;;7.13;;
3845;SDS011;1938;50.812;7.738;2023-04-25T03:23:09;21.17;;;8.27;;
3845;SDS011;1938;50.812;7.738;2023-04-25T03:25:34;18.27;;;8.33;;
3845;SDS011;1938;50.812;7.738;2023-04-25T03:28:00;16.43;;;6.60;;
3845;SDS011;1938;50.812;7.738;2023-04-25T03:30:25;17.20;;;7.37;;
3845;SDS011;1938;50.812;7.738;2023-04-25T03:32:52;23.13;;;6.70;;
3845;SDS011;1938;50.812;7.738;2023-04-25T03:35:17;9.17;;;3.10;;
3845;SDS011;1938;50.812;7.738;2023-04-25T03:37:43;10.63;;;4.90;;
3845;SDS011;1938;50.812;7.738;2023-04-25T03:40:10;14.67;;;5.60;;
3845;SDS011;1938;50.812;7.738;2023-04-25T03:42:36;18.90;;;5.33;;
3845;SDS011;1938;50.812;7.738;2023-04-25T03:45:02;18.67;;;7.87;;
3845;SDS011;1938;50.812;7.738;2023-04-25T03:47:27;22.17;;;7.23;;
3845;SDS011;1938;50.812;7.738;2023-04-25T03:49:53;13.17;;;4.97;;
3845;SDS011;1938;50.812;7.738;2023-04-25T03:52:19;11.30;;;5.87;;
3845;SDS011;1938;50.812;7.738;2023-04-25T03:54:44;17.57;;;8.20;;
3845;SDS011;1938;50.812;7.738;2023-04-25T03:57:10;19.70;;;8.10;;
3845;SDS011;1938;50.812;7.738;2023-04-25T03:59:35;28.13;;;8.30;;
3845;SDS011;1938;50.812;7.738;2023-04-25T04:02:01;15.30;;;5.37;;
3845;SDS011;1938;50.812;7.738;2023-04-25T04:04:26;17.93;;;7.90;;
3845;SDS011;1938;50.812;7.738;2023-04-25T04:06:52;13.50;;;5.83;;
3845;SDS011;1938;50.812;7.738;2023-04-25T04:09:18;13.83;;;4.63;;
3845;SDS011;1938;50.812;7.738;2023-04-25T04:11:44;16.57;;;6.27;;
3845;SDS011;1938;50.812;7.738;2023-04-25T04:14:10;23.70;;;7.73;;
3845;SDS011;1938;50.812;7.738;2023-04-25T04:16:35;27.20;;;8.23;;
3845;SDS011;1938;50.812;7.738;2023-04-25T04:19:01;17.50;;;6.90;;
3845;SDS011;1938;50.812;7.738;2023-04-25T04:21:27;19.03;;;6.37;;
3845;SDS011;1938;50.812;7.738;2023-04-25T04:23:53;21.07;;;6.57;;
3845;SDS011;1938;50.812;7.738;2023-04-25T04:26:19;18.23;;;7.73;;
3845;SDS011;1938;50.812;7.738;2023-04-25T04:28:48;32.73;;;7.40;;
3845;SDS011;1938;50.812;7.738;2023-04-25T04:31:15;14.00;;;5.77;;
3845;SDS011;1938;50.812;7.738;2023-04-25T04:33:43;17.40;;;6.13;;
3845;SDS011;1938;50.812;7.738;2023-04-25T04:36:09;16.47;;;6.00;;
3845;SDS011;1938;50.812;7.738;2023-04-25T04:38:35;33.83;;;7.93;;
3845;SDS011;1938;50.812;7.738;2023-04-25T04:41:01;8.67;;;4.80;;
3845;SDS011;1938;50.812;7.738;2023-04-25T04:43:27;22.73;;;8.20;;
3845;SDS011;1938;50.812;7.738;2023-04-25T04:45:53;23.47;;;7.57;;
3845;SDS011;1938;50.812;7.738;2023-04-25T04:48:21;11.60;;;5.87;;
3845;SDS011;1938;50.812;7.738;2023-04-25T04:50:46;9.80;;;3.30;;
3845;SDS011;1938;50.812;7.738;2023-04-25T04:53:12;19.70;;;6.20;;
3845;SDS011;1938;50.812;7.738;2023-04-25T04:55:38;11.37;;;4.30;;
3845;SDS011;1938;50.812;7.738;2023-04-25T04:58:06;22.17;;;7.23;;
3845;SDS011;1938;50.812;7.738;2023-04-25T05:00:32;18.87;;;5.63;;
3845;SDS011;1938;50.812;7.738;2023-04-25T05:02:58;28.67;;;9.00;;
3845;SDS011;1938;50.812;7.738;2023-04-25T05:05:24;18.73;;;6.57;;
3845;SDS011;1938;50.812;7.738;2023-04-25T05:07:49;13.53;;;6.80;;
3845;SDS011;1938;50.812;7.738;2023-04-25T05:10:16;15.70;;;6.40;;
3845;SDS011;1938;50.812;7.738;2023-04-25T05:12:45;16.80;;;7.30;;
3845;SDS011;1938;50.812;7.738;2023-04-25T05:15:10;10.30;;;5.73;;
3845;SDS011;1938;50.812;7.738;2023-04-25T05:17:36;21.90;;;7.73;;
3845;SDS011;1938;50.812;7.738;2023-04-25T05:20:02;15.90;;;4.67;;
3845;SDS011;1938;50.812;7.738;2023-04-25T05:22:30;18.23;;;6.60;;
3845;SDS011;1938;50.812;7.738;2023-04-25T05:24:56;23.90;;;7.33;;
3845;SDS011;1938;50.812;7.738;2023-04-25T05:27:21;21.87;;;6.17;;
3845;SDS011;1938;50.812;7.738;2023-04-25T05:29:47;18.43;;;7.30;;
3845;SDS011;1938;50.812;7.738;2023-04-25T05:32:12;9.80;;;4.17;;
3845;SDS011;1938;50.812;7.738;2023-04-25T05:34:38;9.20;;;4.50;;
3845;SDS011;1938;50.812;7.738;2023-04-25T05:37:03;17.37;;;6.27;;
3845;SDS011;1938;50.812;7.738;2023-04-25T05:39:29;14.70;;;7.83;;
3845;SDS011;1938;50.812;7.738;2023-04-25T05:41:55;12.20;;;5.53;;
3845;SDS011;1938;50.812;7.738;2023-04-25T05:44:21;16.23;;;4.33;;
3845;SDS011;1938;50.812;7.738;2023-04-25T05:46:46;17.17;;;5.37;;
3845;SDS011;1938;50.812;7.738;2023-04-25T05:49:12;12.20;;;5.40;;
3845;SDS011;1938;50.812;7.738;2023-04-25T05:51:38;19.63;;;7.63;;
3845;SDS011;1938;50.812;7.738;2023-04-25T05:54:03;20.13;;;8.50;;
3845;SDS011;1938;50.812;7.738;2023-04-25T05:56:29;16.60;;;8.50;;
3845;SDS011;1938;50.812;7.738;2023-04-25T05:58:55;17.20;;;7.10;;
3845;SDS011;1938;50.812;7.738;2023-04-25T06:01:21;23.70;;;7.60;;
3845;SDS011;1938;50.812;7.738;2023-04-25T06:03:48;18.93;;;8.40;;
3845;SDS011;1938;50.812;7.738;2023-04-25T06:06:13;19.30;;;8.03;;
3845;SDS011;1938;50.812;7.738;2023-04-25T06:08:39;19.80;;;8.40;;
3845;SDS011;1938;50.812;7.738;2023-04-25T06:11:05;24.07;;;9.03;;
3845;SDS011;1938;50.812;7.738;2023-04-25T06:13:31;20.80;;;7.33;;
3845;SDS011;1938;50.812;7.738;2023-04-25T06:15:56;22.10;;;7.37;;
3845;SDS011;1938;50.812;7.738;2023-04-25T06:18:23;23.63;;;8.07;;
3845;SDS011;1938;50.812;7.738;2023-04-25T06:20:48;27.10;;;7.97;;
3845;SDS011;1938;50.812;7.738;2023-04-25T06:23:14;17.53;;;6.87;;
3845;SDS011;1938;50.812;7.738;2023-04-25T06:25:39;19.27;;;7.10;;
3845;SDS011;1938;50.812;7.738;2023-04-25T06:28:05;14.13;;;6.40;;
3845;SDS011;1938;50.812;7.738;2023-04-25T06:30:30;18.87;;;7.33;;
3845;SDS011;1938;50.812;7.738;2023-04-25T06:32:56;24.03;;;8.80;;
3845;SDS011;1938;50.812;7.738;2023-04-25T06:35:22;30.40;;;7.70;;
3845;SDS011;1938;50.812;7.738;2023-04-25T06:37:47;23.17;;;7.50;;
3845;SDS011;1938;50.812;7.738;2023-04-25T06:40:13;17.60;;;7.93;;
3845;SDS011;1938;50.812;7.738;2023-04-25T06:42:38;19.23;;;8.37;;
3845;SDS011;1938;50.812;7.738;2023-04-25T06:45:04;16.47;;;7.57;;
3845;SDS011;1938;50.812;7.738;2023-04-25T06:47:30;22.17;;;7.70;;
3845;SDS011;1938;50.812;7.738;2023-04-25T06:49:55;20.23;;;8.13;;
3845;SDS011;1938;50.812;7.738;2023-04-25T06:52:22;16.83;;;8.37;;
3845;SDS011;1938;50.812;7.738;2023-04-25T06:54:48;20.60;;;8.17;;
3845;SDS011;1938;50.812;7.738;2023-04-25T06:57:13;22.03;;;8.07;;
3845;SDS011;1938;50.812;7.738;2023-04-25T06:59:39;17.50;;;8.17;;
3845;SDS011;1938;50.812;7.738;2023-04-25T07:02:05;15.90;;;7.87;;
3845;SDS011;1938;50.812;7.738;2023-04-25T07:04:31;20.53;;;8.83;;
3845;SDS011;1938;50.812;7.738;2023-04-25T07:06:56;21.03;;;8.00;;
3845;SDS011;1938;50.812;7.738;2023-04-25T07:09:22;15.60;;;6.43;;
3845;SDS011;1938;50.812;7.738;2023-04-25T07:11:48;16.57;;;5.40;;
3845;SDS011;1938;50.812;7.738;2023-04-25T07:14:13;14.53;;;5.53;;
3845;SDS011;1938;50.812;7.738;2023-04-25T07:16:39;13.87;;;4.90;;
3845;SDS011;1938;50.812;7.738;2023-04-25T07:19:05;20.67;;;5.93;;
3845;SDS011;1938;50.812;7.738;2023-04-25T07:21:30;14.80;;;6.63;;
3845;SDS011;1938;50.812;7.738;2023-04-25T07:23:57;13.10;;;5.10;;
3845;SDS011;1938;50.812;7.738;2023-04-25T07:26:22;20.10;;;6.17;;
3845;SDS011;1938;50.812;7.738;2023-04-25T07:28:48;17.73;;;5.20;;
3845;SDS011;1938;50.812;7.738;2023-04-25T07:31:16;15.90;;;6.20;;
3845;SDS011;1938;50.812;7.738;2023-04-25T07:33:43;14.43;;;5.53;;
3845;SDS011;1938;50.812;7.738;2023-04-25T07:36:10;8.97;;;3.90;;
3845;SDS011;1938;50.812;7.738;2023-04-25T07:38:35;16.50;;;4.57;;
3845;SDS011;1938;50.812;7.738;2023-04-25T07:41:01;6.80;;;2.13;;
3845;SDS011;1938;50.812;7.738;2023-04-25T07:43:26;6.17;;;2.70;;
3845;SDS011;1938;50.812;7.738;2023-04-25T07:45:52;7.77;;;2.50;;
3845;SDS011;1938;50.812;7.738;2023-04-25T07:48:17;13.43;;;3.17;;
3845;SDS011;1938;50.812;7.738;2023-04-25T07:50:43;7.93;;;3.53;;
3845;SDS011;1938;50.812;7.738;2023-04-25T07:53:09;10.90;;;3.83;;
3845;SDS011;1938;50.812;7.738;2023-04-25T07:55:35;12.57;;;4.90;;
3845;SDS011;1938;50.812;7.738;2023-04-25T07:58:01;8.60;;;3.03;;
3845;SDS011;1938;50.812;7.738;2023-04-25T08:00:28;8.17;;;2.57;;
3845;SDS011;1938;50.812;7.738;2023-04-25T08:02:54;9.57;;;3.57;;
3845;SDS011;1938;50.812;7.738;2023-04-25T08:05:19;8.33;;;2.23;;
3845;SDS011;1938;50.812;7.738;2023-04-25T08:07:45;9.50;;;5.50;;
3845;SDS011;1938;50.812;7.738;2023-04-25T08:10:10;7.93;;;3.10;;
3845;SDS011;1938;50.812;7.738;2023-04-25T08:12:36;11.00;;;3.40;;
3845;SDS011;1938;50.812;7.738;2023-04-25T08:15:01;10.53;;;3.80;;
3845;SDS011;1938;50.812;7.738;2023-04-25T08:17:27;6.87;;;3.17;;
3845;SDS011;1938;50.812;7.738;2023-04-25T08:19:53;9.57;;;3.07;;
3845;SDS011;1938;50.812;7.738;2023-04-25T08:22:18;7.83;;;3.00;;
3845;SDS011;1938;50.812;7.738;2023-04-25T08:24:44;8.27;;;3.77;;
3845;SDS011;1938;50.812;7.738;2023-04-25T08:27:09;12.30;;;3.47;;
3845;SDS011;1938;50.812;7.738;2023-04-25T08:29:36;9.47;;;3.37;;
3845;SDS011;1938;50.812;7.738;2023-04-25T08:32:01;11.10;;;3.20;;
3845;SDS011;1938;50.812;7.738;2023-04-25T08:34:27;12.63;;;3.10;;
3845;SDS011;1938;50.812;7.738;2023-04-25T08:36:52;8.90;;;3.40;;
3845;SDS011;1938;50.812;7.738;2023-04-25T08:39:18;12.53;;;3.10;;
3845;SDS011;1938;50.812;7.738;2023-04-25T08:41:43;7.83;;;3.93;;
3845;SDS011;1938;50.812;7.738;2023-04-25T08:44:10;11.27;;;3.70;;
3845;SDS011;1938;50.812;7.738;2023-04-25T08:46:37;5.33;;;3.07;;
3845;SDS011;1938;50.812;7.738;2023-04-25T08:49:05;21.53;;;3.73;;
3845;SDS011;1938;50.812;7.738;2023-04-25T08:51:32;6.63;;;3.30;;
3845;SDS011;1938;50.812;7.738;2023-04-25T08:54:08;12.30;;;3.40;;
3845;SDS011;1938;50.812;7.738;2023-04-25T08:56:38;9.80;;;4.07;;
3845;SDS011;1938;50.812;7.738;2023-04-25T08:59:06;4.90;;;2.60;;
3845;SDS011;1938;50.812;7.738;2023-04-25T09:01:33;6.90;;;3.60;;
3845;SDS011;1938;50.812;7.738;2023-04-25T09:04:00;25.67;;;3.50;;
3845;SDS011;1938;50.812;7.738;2023-04-25T09:06:27;9.23;;;3.03;;
3845;SDS011;1938;50.812;7.738;2023-04-25T09:09:03;12.53;;;3.43;;
3845;SDS011;1938;50.812;7.738;2023-04-25T09:11:31;7.90;;;2.70;;
3845;SDS011;1938;50.812;7.738;2023-04-25T09:16:58;7.47;;;2.90;;
3845;SDS011;1938;50.812;7.738;2023-04-25T09:19:26;8.27;;;3.33;;
3845;SDS011;1938;50.812;7.738;2023-04-25T09:21:57;11.27;;;3.03;;
3845;SDS011;1938;50.812;7.738;2023-04-25T09:24:37;11.87;;;4.27;;
3845;SDS011;1938;50.812;7.738;2023-04-25T09:27:08;9.83;;;3.43;;
3845;SDS011;1938;50.812;7.738;2023-04-25T09:29:36;10.33;;;3.00;;
3845;SDS011;1938;50.812;7.738;2023-04-25T09:32:16;9.17;;;3.53;;
3845;SDS011;1938;50.812;7.738;2023-04-25T09:34:49;7.47;;;3.10;;
3845;SDS011;1938;50.812;7.738;2023-04-25T09:37:26;11.73;;;2.80;;
3845;SDS011;1938;50.812;7.738;2023-04-25T09:39:57;13.40;;;2.97;;
3845;SDS011;1938;50.812;7.738;2023-04-25T09:42:25;10.53;;;3.13;;
3845;SDS011;1938;50.812;7.738;2023-04-25T09:44:54;12.40;;;2.90;;
3845;SDS011;1938;50.812;7.738;2023-04-25T09:47:22;9.70;;;2.70;;
3845;SDS011;1938;50.812;7.738;2023-04-25T09:49:48;10.33;;;2.60;;
3845;SDS011;1938;50.812;7.738;2023-04-25T09:52:16;8.63;;;2.50;;
3845;SDS011;1938;50.812;7.738;2023-04-25T09:54:46;20.13;;;4.23;;
3845;SDS011;1938;50.812;7.738;2023-04-25T09:57:16;10.70;;;3.77;;
3845;SDS011;1938;50.812;7.738;2023-04-25T09:59:44;5.60;;;2.93;;
3845;SDS011;1938;50.812;7.738;2023-04-25T10:02:12;9.73;;;3.90;;
3845;SDS011;1938;50.812;7.738;2023-04-25T10:04:39;17.17;;;5.13;;
3845;SDS011;1938;50.812;7.738;2023-04-25T10:07:06;7.97;;;3.70;;
3845;SDS011;1938;50.812;7.738;2023-04-25T10:09:33;8.27;;;3.60;;
3845;SDS011;1938;50.812;7.738;2023-04-25T10:12:02;15.40;;;3.10;;
3845;SDS011;1938;50.812;7.738;2023-04-25T10:14:29;7.03;;;3.63;;
3845;SDS011;1938;50.812;7.738;2023-04-25T10:16:56;11.13;;;4.17;;
3845;SDS011;1938;50.812;7.738;2023-04-25T10:19:23;13.20;;;3.37;;
3845;SDS011;1938;50.812;7.738;2023-04-25T10:24:23;15.13;;;4.60;;
3845;SDS011;1938;50.812;7.738;2023-04-25T10:26:50;13.50;;;3.77;;
3845;SDS011;1938;50.812;7.738;2023-04-25T10:29:23;5.13;;;2.40;;
3845;SDS011;1938;50.812;7.738;2023-04-25T10:31:51;5.90;;;3.10;;
3845;SDS011;1938;50.812;7.738;2023-04-25T10:34:17;9.40;;;2.73;;
3845;SDS011;1938;50.812;7.738;2023-04-25T10:36:43;5.30;;;2.60;;
3845;SDS011;1938;50.812;7.738;2023-04-25T10:39:26;5.60;;;2.70;;
3845;SDS011;1938;50.812;7.738;2023-04-25T10:41:53;5.37;;;2.40;;
3845;SDS011;1938;50.812;7.738;2023-04-25T10:44:21;14.10;;;2.63;;
3845;SDS011;1938;50.812;7.738;2023-04-25T10:46:47;12.47;;;3.83;;
3845;SDS011;1938;50.812;7.738;2023-04-25T10:55:02;8.03;;;3.00;;
3845;SDS011;1938;50.812;7.738;2023-04-25T10:57:41;6.80;;;3.00;;
3845;SDS011;1938;50.812;7.738;2023-04-25T11:02:37;7.30;;;2.90;;
3845;SDS011;1938;50.812;7.738;2023-04-25T11:05:22;7.53;;;2.53;;
3845;SDS011;1938;50.812;7.738;2023-04-25T11:07:54;5.03;;;2.90;;
3845;SDS011;1938;50.812;7.738;2023-04-25T11:10:29;9.10;;;2.90;;
3845;SDS011;1938;50.812;7.738;2023-04-25T11:12:57;6.53;;;3.70;;
3845;SDS011;1938;50.812;7.738;2023-04-25T11:15:25;7.00;;;3.30;;
3845;SDS011;1938;50.812;7.738;2023-04-25T11:17:51;7.47;;;3.30;;
3845;SDS011;1938;50.812;7.738;2023-04-25T11:20:17;5.80;;;2.20;;
3845;SDS011;1938;50.812;7.738;2023-04-25T11:22:44;4.70;;;2.70;;
3845;SDS011;1938;50.812;7.738;2023-04-25T11:25:11;19.10;;;3.90;;
3845;SDS011;1938;50.812;7.738;2023-04-25T11:30:24;16.27;;;3.03;;
3845;SDS011;1938;50.812;7.738;2023-04-25T11:32:51;6.47;;;2.57;;
3845;SDS011;1938;50.812;7.738;2023-04-25T11:35:17;13.80;;;3.60;;
3845;SDS011;1938;50.812;7.738;2023-04-25T11:37:44;5.77;;;2.90;;
3845;SDS011;1938;50.812;7.738;2023-04-25T11:40:10;7.87;;;2.60;;
3845;SDS011;1938;50.812;7.738;2023-04-25T11:42:42;6.43;;;2.30;;
3845;SDS011;1938;50.812;7.738;2023-04-25T11:45:09;5.90;;;2.00;;
3845;SDS011;1938;50.812;7.738;2023-04-25T11:47:35;9.13;;;2.77;;
3845;SDS011;1938;50.812;7.738;2023-04-25T11:50:02;6.63;;;2.20;;
3845;SDS011;1938;50.812;7.738;2023-04-25T11:52:40;5.30;;;2.53;;
3845;SDS011;1938;50.812;7.738;2023-04-25T11:55:10;14.87;;;2.80;;
3845;SDS011;1938;50.812;7.738;2023-04-25T11:57:38;10.30;;;2.10;;
3845;SDS011;1938;50.812;7.738;2023-04-25T12:00:07;6.33;;;1.80;;
3845;SDS011;1938;50.812;7.738;2023-04-25T12:02:43;4.67;;;2.20;;
3845;SDS011;1938;50.812;7.738;2023-04-25T12:05:10;3.83;;;1.97;;
3845;SDS011;1938;50.812;7.738;2023-04-25T12:07:36;19.00;;;2.30;;
3845;SDS011;1938;50.812;7.738;2023-04-25T12:10:09;7.60;;;2.27;;
3845;SDS011;1938;50.812;7.738;2023-04-25T12:12:36;7.30;;;1.90;;
3845;SDS011;1938;50.812;7.738;2023-04-25T12:15:09;3.47;;;1.80;;
3845;SDS011;1938;50.812;7.738;2023-04-25T12:17:35;7.33;;;2.73;;
3845;SDS011;1938;50.812;7.738;2023-04-25T12:20:08;9.03;;;2.27;;
3845;SDS011;1938;50.812;7.738;2023-04-25T12:22:35;8.00;;;2.20;;
3845;SDS011;1938;50.812;7.738;2023-04-25T12:25:01;5.43;;;2.00;;
3845;SDS011;1938;50.812;7.738;2023-04-25T12:27:30;11.70;;;2.70;;
3845;SDS011;1938;50.812;7.738;2023-04-25T12:29:56;8.30;;;2.77;;
3845;SDS011;1938;50.812;7.738;2023-04-25T12:32:22;7.00;;;3.10;;
3845;SDS011;1938;50.812;7.738;2023-04-25T12:34:48;5.37;;;1.90;;
3845;SDS011;1938;50.812;7.738;2023-04-25T12:37:14;5.87;;;2.20;;
3845;SDS011;1938;50.812;7.738;2023-04-25T12:39:39;3.73;;;1.80;;
3845;SDS011;1938;50.812;7.738;2023-04-25T12:42:05;8.30;;;2.10;;
3845;SDS011;1938;50.812;7.738;2023-04-25T12:44:32;6.70;;;2.23;;
3845;SDS011;1938;50.812;7.738;2023-04-25T12:46:58;17.13;;;3.47;;
3845;SDS011;1938;50.812;7.738;2023-04-25T12:49:24;5.30;;;1.57;;
3845;SDS011;1938;50.812;7.738;2023-04-25T12:51:50;7.77;;;2.37;;
3845;SDS011;1938;50.812;7.738;2023-04-25T12:54:16;5.03;;;2.23;;
3845;SDS011;1938;50.812;7.738;2023-04-25T12:56:42;4.53;;;2.03;;
3845;SDS011;1938;50.812;7.738;2023-04-25T12:59:08;4.63;;;2.07;;
3845;SDS011;1938;50.812;7.738;2023-04-25T13:01:34;9.87;;;2.20;;
3845;SDS011;1938;50.812;7.738;2023-04-25T13:04:00;9.10;;;2.50;;
3845;SDS011;1938;50.812;7.738;2023-04-25T13:06:25;2.93;;;1.93;;
3845;SDS011;1938;50.812;7.738;2023-04-25T13:08:52;8.93;;;2.33;;
3845;SDS011;1938;50.812;7.738;2023-04-25T13:11:17;10.90;;;2.87;;
3845;SDS011;1938;50.812;7.738;2023-04-25T13:13:43;4.10;;;1.70;;
3845;SDS011;1938;50.812;7.738;2023-04-25T13:16:10;7.33;;;2.20;;
3845;SDS011;1938;50.812;7.738;2023-04-25T13:18:38;4.97;;;1.60;;
3845;SDS011;1938;50.812;7.738;2023-04-25T13:21:04;3.60;;;2.13;;
3845;SDS011;1938;50.812;7.738;2023-04-25T13:23:30;6.27;;;1.73;;
3845;SDS011;1938;50.812;7.738;2023-04-25T13:25:55;5.90;;;1.90;;
3845;SDS011;1938;50.812;7.738;2023-04-25T13:28:23;4.77;;;2.10;;
3845;SDS011;1938;50.812;7.738;2023-04-25T13:30:51;6.30;;;1.73;;
3845;SDS011;1938;50.812;7.738;2023-04-25T13:33:17;5.73;;;2.20;;
3845;SDS011;1938;50.812;7.738;2023-04-25T13:35:43;2.93;;;1.57;;
3845;SDS011;1938;50.812;7.738;2023-04-25T13:38:11;2.70;;;1.60;;
3845;SDS011;1938;50.812;7.738;2023-04-25T13:40:37;5.70;;;1.80;;
3845;SDS011;1938;50.812;7.738;2023-04-25T13:43:03;6.07;;;1.90;;
3845;SDS011;1938;50.812;7.738;2023-04-25T13:45:29;3.77;;;1.90;;
3845;SDS011;1938;50.812;7.738;2023-04-25T13:47:54;4.97;;;1.73;;
3845;SDS011;1938;50.812;7.738;2023-04-25T13:50:20;4.43;;;1.47;;
3845;SDS011;1938;50.812;7.738;2023-04-25T13:52:46;5.43;;;1.60;;
3845;SDS011;1938;50.812;7.738;2023-04-25T13:55:11;8.70;;;2.07;;
3845;SDS011;1938;50.812;7.738;2023-04-25T13:57:37;5.50;;;1.70;;
3845;SDS011;1938;50.812;7.738;2023-04-25T14:00:04;9.47;;;2.40;;
3845;SDS011;1938;50.812;7.738;2023-04-25T14:02:37;7.43;;;2.10;;
3845;SDS011;1938;50.812;7.738;2023-04-25T14:05:06;5.27;;;1.73;;
3845;SDS011;1938;50.812;7.738;2023-04-25T14:07:33;5.70;;;2.73;;
3845;SDS011;1938;50.812;7.738;2023-04-25T14:09:59;3.40;;;1.73;;
3845;SDS011;1938;50.812;7.738;2023-04-25T14:12:25;3.60;;;1.87;;
3845;SDS011;1938;50.812;7.738;2023-04-25T14:14:51;4.33;;;1.47;;
3845;SDS011;1938;50.812;7.738;2023-04-25T14:17:18;2.87;;;1.80;;
3845;SDS011;1938;50.812;7.738;2023-04-25T14:19:44;5.13;;;2.23;;
3845;SDS011;1938;50.812;7.738;2023-04-25T14:22:12;4.63;;;2.43;;
3845;SDS011;1938;50.812;7.738;2023-04-25T14:24:38;7.13;;;1.80;;
3845;SDS011;1938;50.812;7.738;2023-04-25T14:27:03;5.23;;;2.23;;
3845;SDS011;1938;50.812;7.738;2023-04-25T14:29:29;6.03;;;1.87;;
3845;SDS011;1938;50.812;7.738;2023-04-25T14:31:56;3.20;;;1.57;;
3845;SDS011;1938;50.812;7.738;2023-04-25T14:34:23;9.37;;;2.23;;
3845;SDS011;1938;50.812;7.738;2023-04-25T14:36:48;4.77;;;1.73;;
3845;SDS011;1938;50.812;7.738;2023-04-25T14:39:14;10.63;;;2.30;;
3845;SDS011;1938;50.812;7.738;2023-04-25T14:41:40;3.20;;;1.80;;
3845;SDS011;1938;50.812;7.738;2023-04-25T14:44:05;6.70;;;2.70;;
3845;SDS011;1938;50.812;7.738;2023-04-25T14:46:31;3.73;;;1.80;;
3845;SDS011;1938;50.812;7.738;2023-04-25T14:48:56;7.33;;;2.40;;
3845;SDS011;1938;50.812;7.738;2023-04-25T14:51:22;11.20;;;2.70;;
3845;SDS011;1938;50.812;7.738;2023-04-25T14:53:48;6.93;;;2.17;;
3845;SDS011;1938;50.812;7.738;2023-04-25T14:56:14;3.13;;;1.60;;
3845;SDS011;1938;50.812;7.738;2023-04-25T14:58:39;5.30;;;2.10;;
3845;SDS011;1938;50.812;7.738;2023-04-25T15:01:05;5.60;;;2.40;;
3845;SDS011;1938;50.812;7.738;2023-04-25T15:03:31;5.90;;;1.80;;
3845;SDS011;1938;50.812;7.738;2023-04-25T15:05:57;4.90;;;2.40;;
3845;SDS011;1938;50.812;7.738;2023-04-25T15:08:23;3.67;;;2.10;;
3845;SDS011;1938;50.812;7.738;2023-04-25T15:10:48;7.97;;;2.23;;
3845;SDS011;1938;50.812;7.738;2023-04-25T15:13:14;4.43;;;2.03;;
3845;SDS011;1938;50.812;7.738;2023-04-25T15:15:40;4.07;;;1.63;;
3845;SDS011;1938;50.812;7.738;2023-04-25T15:18:06;2.80;;;1.23;;
3845;SDS011;1938;50.812;7.738;2023-04-25T15:20:31;6.93;;;1.60;;